Time;durP1;ratioP1;P1;durP2;ratioP2;P2;SDS_P1;SDS_P2;PMS_P1;PMS_P2;Temp;Humidity;BMP_temperature;BMP_pressure;BME280_temperature;BME280_humidity;BME280_pressure;Samples;Min_cycle;Max_cycle;Signal;HPM_P1;HPM_P2
2022/06/16 00:01:32;;;;;;;5.97;4.45;;;15.50;99.90;;;;;;5090632;27;20047;-86
2022/06/16 00:03:59;;;;;;;7.03;4.80;;;15.40;99.90;;;;;;5080789;27;20498;-85
2022/06/16 00:06:27;;;;;;;5.78;3.85;;;15.40;99.90;;;;;;5092801;27;20133;-84
2022/06/16 00:08:57;;;;;;;6.97;4.45;;;15.40;99.90;;;;;;5088764;27;20043;-86
2022/06/16 00:11:23;;;;;;;6.55;3.90;;;15.30;99.90;;;;;;5093107;27;20449;-85
2022/06/16 00:13:51;;;;;;;6.70;4.30;;;15.30;99.90;;;;;;5096644;27;20547;-84
2022/06/16 00:16:28;;;;;;;5.47;4.05;;;15.30;99.90;;;;;;5108587;27;20403;-85
2022/06/16 00:18:53;;;;;;;7.85;4.15;;;15.30;99.90;;;;;;5093958;27;20047;-85
2022/06/16 00:21:19;;;;;;;4.43;3.58;;;15.30;99.90;;;;;;5100532;27;20050;-86
2022/06/16 00:23:45;;;;;;;7.85;4.45;;;15.40;99.90;;;;;;5093372;27;20051;-85
2022/06/16 00:26:13;;;;;;;6.80;4.32;;;15.40;99.90;;;;;;5076628;27;20039;-88
2022/06/16 00:28:42;;;;;;;6.20;3.95;;;15.40;99.90;;;;;;5090199;27;20521;-85
2022/06/16 00:31:09;;;;;;;7.40;4.05;;;15.40;99.90;;;;;;5091826;27;20058;-86
2022/06/16 00:33:35;;;;;;;6.68;3.80;;;15.40;99.90;;;;;;5093793;27;20047;-85
2022/06/16 00:36:01;;;;;;;6.10;3.90;;;15.40;99.90;;;;;;5090742;27;20484;-85
2022/06/16 00:38:30;;;;;;;6.55;4.28;;;15.50;99.90;;;;;;5077098;27;20104;-85
2022/06/16 00:40:55;;;;;;;7.18;3.88;;;15.40;99.90;;;;;;5095071;27;20051;-85
2022/06/16 00:43:22;;;;;;;4.63;3.63;;;15.30;99.90;;;;;;5088613;27;20058;-85
2022/06/16 00:46:00;;;;;;;5.75;3.83;;;15.40;99.90;;;;;;5093978;27;20412;-86
2022/06/16 00:48:43;;;;;;;4.07;3.35;;;15.30;99.90;;;;;;5093688;27;20392;-85
2022/06/16 00:51:17;;;;;;;5.50;3.95;;;15.40;99.90;;;;;;5087604;27;20049;-85
2022/06/16 00:53:51;;;;;;;7.65;4.00;;;15.30;99.90;;;;;;5090475;27;20057;-85
2022/06/16 00:56:21;;;;;;;5.13;3.30;;;15.40;99.90;;;;;;5108639;27;20051;-86
2022/06/16 00:58:58;;;;;;;5.78;3.70;;;15.30;99.90;;;;;;5094873;27;20491;-85
2022/06/16 01:01:28;;;;;;;5.88;3.72;;;15.30;99.90;;;;;;5097322;27;20544;-85
2022/06/16 01:06:45;;;;;;;6.00;3.85;;;15.30;99.90;;;;;;5069153;27;20051;-86
2022/06/16 01:09:18;;;;;;;5.35;3.53;;;15.20;99.90;;;;;;5099869;27;20082;-84
2022/06/16 01:14:54;;;;;;;5.18;3.83;;;15.20;99.90;;;;;;5110849;27;20081;-85
2022/06/16 01:17:25;;;;;;;6.05;3.88;;;15.20;99.90;;;;;;5092442;27;20051;-84
2022/06/16 01:20:10;;;;;;;5.85;3.45;;;15.10;99.90;;;;;;5095057;27;20122;-84
2022/06/16 01:23:11;;;;;;;6.20;4.00;;;15.10;99.90;;;;;;5108712;27;20052;-86
2022/06/16 01:25:52;;;;;;;4.13;3.22;;;15.00;99.90;;;;;;5111390;27;20096;-85
2022/06/16 01:28:29;;;;;;;5.38;4.05;;;15.00;99.90;;;;;;5088815;27;20074;-85
2022/06/16 01:31:01;;;;;;;5.35;4.18;;;15.00;99.90;;;;;;5109064;27;20055;-85
2022/06/16 01:33:32;;;;;;;7.30;4.00;;;14.40;99.90;;;;;;5089252;27;20055;-86
2022/06/16 01:36:35;;;;;;;5.63;3.95;;;15.00;99.90;;;;;;5089651;27;20046;-85
2022/06/16 01:39:10;;;;;;;5.25;3.13;;;15.00;99.90;;;;;;5093048;27;20572;-85
2022/06/16 01:42:10;;;;;;;5.38;3.72;;;15.00;99.90;;;;;;5091497;27;20794;-84
2022/06/16 01:44:43;;;;;;;5.28;3.90;;;15.00;99.90;;;;;;5040505;27;20058;-84
2022/06/16 01:47:14;;;;;;;6.68;4.15;;;15.00;99.90;;;;;;5070771;28;20081;-86
2022/06/16 01:49:53;;;;;;;5.70;3.92;;;15.00;99.90;;;;;;5064921;28;20051;-85
2022/06/16 01:52:34;;;;;;;8.80;4.03;;;15.00;99.90;;;;;;5084029;28;20048;-85
2022/06/16 01:55:14;;;;;;;4.38;3.55;;;15.00;99.90;;;;;;5066926;28;20044;-85
2022/06/16 01:57:51;;;;;;;7.05;3.60;;;14.90;99.90;;;;;;5068163;28;20086;-85
2022/06/16 02:00:23;;;;;;;5.18;3.60;;;14.90;99.90;;;;;;5084396;28;20040;-85
2022/06/16 02:02:54;;;;;;;5.97;4.10;;;14.90;99.90;;;;;;5066650;28;20060;-84
2022/06/16 02:05:43;;;;;;;6.10;3.95;;;14.80;99.90;;;;;;5065896;28;20125;-85
2022/06/16 02:08:30;;;;;;;5.55;3.78;;;14.90;99.90;;;;;;5064690;28;20059;-85
2022/06/16 02:11:01;;;;;;;6.55;4.00;;;14.80;99.90;;;;;;5068679;28;20438;-85
2022/06/16 02:13:31;;;;;;;5.30;3.55;;;14.70;99.90;;;;;;5064767;28;20449;-86
2022/06/16 02:16:20;;;;;;;6.30;3.80;;;14.70;99.90;;;;;;5081591;28;20044;-85
2022/06/16 02:18:50;;;;;;;5.47;4.00;;;14.60;99.90;;;;;;5066026;28;20095;-84
2022/06/16 02:21:40;;;;;;;7.20;4.05;;;14.60;99.90;;;;;;5073076;28;20048;-85
2022/06/16 02:24:09;;;;;;;5.97;3.88;;;14.60;99.90;;;;;;5064018;28;20525;-85
2022/06/16 02:26:36;;;;;;;6.18;3.83;;;14.20;99.90;;;;;;5081714;28;20446;-85
2022/06/16 02:29:21;;;;;;;4.90;4.38;;;14.50;99.90;;;;;;5083578;28;20127;-86
2022/06/16 02:31:59;;;;;;;6.25;4.40;;;14.50;99.90;;;;;;5066253;28;20578;-85
2022/06/16 02:34:55;;;;;;;9.23;5.22;;;14.50;99.90;;;;;;5082276;28;20056;-85
2022/06/16 02:37:29;;;;;;;6.63;5.20;;;14.40;99.90;;;;;;5067168;28;20375;-86
2022/06/16 02:40:25;;;;;;;9.73;5.30;;;14.40;99.90;;;;;;5090451;28;20055;-84
2022/06/16 02:43:05;;;;;;;6.80;5.10;;;14.20;99.90;;;;;;5070258;28;20051;-85
2022/06/16 02:45:55;;;;;;;5.97;4.65;;;14.30;99.90;;;;;;5077934;28;20299;-86
2022/06/16 02:49:05;;;;;;;6.07;5.15;;;14.20;99.90;;;;;;5083088;28;20071;-86
2022/06/16 02:51:49;;;;;;;7.50;5.72;;;14.20;99.90;;;;;;5071703;28;20101;-84
2022/06/16 02:54:30;;;;;;;9.35;5.55;;;14.20;99.90;;;;;;5087531;28;20105;-85
2022/06/16 02:57:14;;;;;;;8.65;5.97;;;14.20;99.90;;;;;;5066246;28;20040;-85
2022/06/16 02:59:50;;;;;;;12.23;6.65;;;14.20;99.90;;;;;;5083838;28;20079;-86
2022/06/16 03:02:20;;;;;;;7.75;6.05;;;14.20;99.90;;;;;;5071002;28;20048;-85
2022/06/16 03:04:54;;;;;;;6.60;5.80;;;14.10;99.90;;;;;;5068731;28;20052;-85
2022/06/16 03:07:21;;;;;;;9.45;6.90;;;14.20;99.90;;;;;;5070524;28;20050;-84
2022/06/16 03:09:47;;;;;;;7.95;5.60;;;14.20;99.90;;;;;;5089104;28;20066;-85
2022/06/16 03:12:14;;;;;;;8.77;6.10;;;14.20;99.90;;;;;;5068604;28;20505;-85
2022/06/16 03:14:43;;;;;;;7.78;5.78;;;14.20;99.90;;;;;;5072139;28;20050;-85
2022/06/16 03:17:18;;;;;;;7.53;5.68;;;14.10;99.90;;;;;;5070676;28;20075;-85
2022/06/16 03:19:49;;;;;;;7.60;5.85;;;14.10;99.90;;;;;;5072117;28;20056;-83
2022/06/16 03:22:18;;;;;;;10.50;5.93;;;14.20;99.90;;;;;;5070364;28;20055;-85
2022/06/16 03:24:46;;;;;;;9.25;5.85;;;14.20;99.90;;;;;;5070647;28;20103;-85
2022/06/16 03:27:14;;;;;;;7.43;5.35;;;14.10;99.90;;;;;;5068883;28;20051;-85
2022/06/16 03:29:43;;;;;;;6.90;5.43;;;14.10;99.90;;;;;;5072159;28;20032;-84
2022/06/16 03:32:09;;;;;;;6.15;4.93;;;14.10;99.90;;;;;;5054963;28;20126;-86
2022/06/16 03:34:35;;;;;;;5.60;4.78;;;14.20;99.90;;;;;;5088844;28;20130;-85
2022/06/16 03:37:03;;;;;;;6.82;5.00;;;14.20;99.90;;;;;;5069017;28;20077;-85
2022/06/16 03:39:29;;;;;;;6.53;4.90;;;14.10;99.90;;;;;;5070891;28;20053;-85
2022/06/16 03:41:55;;;;;;;8.05;4.80;;;14.10;99.90;;;;;;5070282;28;20051;-85
2022/06/16 03:44:23;;;;;;;6.32;4.45;;;14.10;99.90;;;;;;5072768;28;20131;-86
2022/06/16 03:46:52;;;;;;;7.05;4.50;;;14.10;99.90;;;;;;5086106;28;20105;-85
2022/06/16 03:49:23;;;;;;;6.20;4.68;;;14.10;99.90;;;;;;5084580;28;20048;-86
2022/06/16 03:51:49;;;;;;;7.72;5.13;;;14.10;99.90;;;;;;5082426;28;20044;-85
2022/06/16 03:54:15;;;;;;;5.20;3.95;;;14.20;99.90;;;;;;5087960;28;20051;-86
2022/06/16 03:56:42;;;;;;;5.60;4.20;;;14.20;99.90;;;;;;5075472;28;20119;-86
2022/06/16 03:59:08;;;;;;;4.88;3.65;;;14.20;99.90;;;;;;5082434;28;20551;-85
2022/06/16 04:01:34;;;;;;;7.00;3.92;;;14.20;99.90;;;;;;5084282;28;20044;-86
2022/06/16 04:04:00;;;;;;;4.25;3.72;;;14.30;99.90;;;;;;5081608;28;20055;-85
2022/06/16 04:06:34;;;;;;;5.68;3.50;;;13.80;99.90;;;;;;5089877;28;20185;-86
2022/06/16 04:09:03;;;;;;;5.05;3.47;;;14.30;99.90;;;;;;5083451;28;20058;-86
2022/06/16 04:11:29;;;;;;;5.63;3.88;;;14.30;99.90;;;;;;5086408;28;20051;-85
2022/06/16 04:14:01;;;;;;;5.20;4.28;;;14.30;99.90;;;;;;5088389;28;20933;-85
2022/06/16 04:16:31;;;;;;;6.53;4.00;;;14.20;99.90;;;;;;5102784;28;20043;-87
2022/06/16 04:19:05;;;;;;;5.15;3.15;;;14.20;99.90;;;;;;5100366;28;20381;-85
2022/06/16 04:21:31;;;;;;;5.88;3.50;;;14.20;99.90;;;;;;5110771;28;20117;-85
2022/06/16 04:23:57;;;;;;;10.43;3.95;;;14.30;99.90;;;;;;5090106;28;20047;-85
2022/06/16 04:26:24;;;;;;;5.55;3.45;;;14.20;99.90;;;;;;5091297;28;20055;-85
2022/06/16 04:28:52;;;;;;;6.80;3.63;;;14.20;99.90;;;;;;5085943;28;20073;-86
2022/06/16 04:31:20;;;;;;;5.03;3.75;;;14.20;99.90;;;;;;5092002;28;20062;-86
2022/06/16 04:33:46;;;;;;;5.60;3.60;;;14.20;99.90;;;;;;5087368;28;20043;-85
2022/06/16 04:36:14;;;;;;;4.80;3.40;;;14.20;99.90;;;;;;5086299;28;20043;-85
2022/06/16 04:38:44;;;;;;;5.90;3.63;;;14.30;99.90;;;;;;5107625;28;20083;-86
2022/06/16 04:41:10;;;;;;;8.23;3.67;;;14.30;99.90;;;;;;5088536;28;20047;-85
2022/06/16 04:43:36;;;;;;;4.95;3.22;;;14.30;99.90;;;;;;5088974;28;20101;-86
2022/06/16 04:46:04;;;;;;;7.18;3.40;;;14.30;99.90;;;;;;5090504;28;20056;-85
2022/06/16 04:48:31;;;;;;;6.30;3.40;;;14.30;99.90;;;;;;5091468;28;20078;-86
2022/06/16 04:50:57;;;;;;;4.05;2.90;;;13.50;99.90;;;;;;5088488;28;20047;-85
2022/06/16 04:53:23;;;;;;;6.13;3.13;;;14.30;99.90;;;;;;5104492;28;20126;-85
2022/06/16 04:55:54;;;;;;;7.60;3.17;;;14.40;99.90;;;;;;5084352;28;20123;-86
2022/06/16 04:58:31;;;;;;;4.65;3.10;;;14.40;99.90;;;;;;5089818;28;20373;-85
2022/06/16 05:00:57;;;;;;;3.90;2.95;;;14.50;99.90;;;;;;5084706;28;20126;-85
2022/06/16 05:03:25;;;;;;;6.15;2.67;;;14.50;99.90;;;;;;5085646;28;20039;-87
2022/06/16 05:05:52;;;;;;;6.05;3.30;;;14.60;99.90;;;;;;5105995;28;20036;-84
2022/06/16 05:08:22;;;;;;;4.40;2.67;;;14.60;99.90;;;;;;5090225;28;20496;-85
2022/06/16 05:10:49;;;;;;;5.72;2.63;;;14.60;99.90;;;;;;5087686;28;20077;-85
2022/06/16 05:13:19;;;;;;;3.38;2.40;;;14.70;99.90;;;;;;5089744;28;20051;-86
2022/06/16 05:15:48;;;;;;;6.30;2.47;;;14.80;99.90;;;;;;5087218;28;20484;-85
2022/06/16 05:18:16;;;;;;;4.93;2.20;;;14.30;99.90;;;;;;5075426;28;20127;-84
2022/06/16 05:20:42;;;;;;;4.43;1.90;;;14.80;99.90;;;;;;5100661;28;20081;-85
2022/06/16 05:23:10;;;;;;;5.25;2.30;;;14.90;99.90;;;;;;5074318;28;20072;-86
2022/06/16 05:25:36;;;;;;;5.13;2.17;;;14.90;99.90;;;;;;5068403;28;20074;-86
2022/06/16 05:28:04;;;;;;;5.50;2.15;;;15.00;99.90;;;;;;5087959;28;20450;-86
2022/06/16 05:30:30;;;;;;;5.38;2.20;;;15.10;99.90;;;;;;5106804;28;20098;-85
2022/06/16 05:32:56;;;;;;;3.38;2.22;;;15.10;99.90;;;;;;5089361;28;20101;-85
2022/06/16 05:35:22;;;;;;;4.03;2.30;;;15.20;99.90;;;;;;5090638;28;20055;-85
2022/06/16 05:37:48;;;;;;;5.22;2.58;;;15.30;99.90;;;;;;5090576;28;20088;-85
2022/06/16 05:40:14;;;;;;;3.80;2.30;;;15.50;99.90;;;;;;5086942;28;20134;-85
2022/06/16 05:42:39;;;;;;;4.80;2.10;;;15.50;99.90;;;;;;5109227;28;20071;-86
2022/06/16 05:45:06;;;;;;;2.78;1.67;;;15.60;99.90;;;;;;5092328;27;20047;-86
2022/06/16 05:47:32;;;;;;;4.88;1.83;;;15.70;99.90;;;;;;5110051;27;20074;-86
2022/06/16 05:49:58;;;;;;;5.63;1.90;;;15.80;99.90;;;;;;5081865;27;20047;-87
2022/06/16 05:52:24;;;;;;;4.57;1.92;;;15.90;99.90;;;;;;5124714;27;20039;-84
2022/06/16 05:54:50;;;;;;;3.42;1.80;;;15.90;99.90;;;;;;5100517;27;20130;-86
2022/06/16 05:57:16;;;;;;;3.65;2.30;;;16.00;99.90;;;;;;5089094;27;20043;-85
2022/06/16 05:59:42;;;;;;;3.90;2.15;;;16.10;99.90;;;;;;5089350;27;20046;-85
2022/06/16 06:02:14;;;;;;;4.10;2.33;;;16.10;99.90;;;;;;5093772;27;20492;-86
2022/06/16 06:04:40;;;;;;;3.42;1.80;;;16.20;99.90;;;;;;5089629;27;20039;-86
2022/06/16 06:07:10;;;;;;;2.63;1.80;;;16.30;99.90;;;;;;5104722;27;20521;-85
2022/06/16 06:18:16;;;;;;;3.20;1.83;;;16.50;99.90;;;;;;5110015;27;20047;-85
2022/06/16 06:20:43;;;;;;;3.25;1.30;;;16.70;99.90;;;;;;5093596;27;20080;-85
2022/06/16 06:23:08;;;;;;;5.32;2.15;;;16.80;99.90;;;;;;5088587;27;20395;-86
2022/06/16 06:25:34;;;;;;;5.60;1.95;;;16.90;99.90;;;;;;5073967;27;20069;-85
2022/06/16 06:28:00;;;;;;;3.75;1.98;;;17.00;99.90;;;;;;5094089;27;20445;-85
2022/06/16 06:30:29;;;;;;;3.13;1.70;;;17.10;99.90;;;;;;5075644;27;20061;-86
2022/06/16 06:32:56;;;;;;;3.92;1.70;;;17.20;99.90;;;;;;5108243;27;20066;-86
2022/06/16 06:35:23;;;;;;;4.20;1.70;;;17.30;99.90;;;;;;5110789;27;20035;-86
2022/06/16 06:37:50;;;;;;;4.30;1.90;;;17.40;99.90;;;;;;5089061;27;20431;-85
2022/06/16 06:40:22;;;;;;;3.47;1.70;;;17.50;99.90;;;;;;5075024;27;20062;-86
2022/06/16 06:42:49;;;;;;;3.40;2.05;;;17.70;99.90;;;;;;5094060;27;20142;-86
2022/06/16 06:45:17;;;;;;;4.05;1.70;;;17.70;99.90;;;;;;5104443;28;20096;-85
2022/06/16 06:47:46;;;;;;;4.13;2.00;;;17.80;99.90;;;;;;5091154;27;20104;-86
2022/06/16 06:50:24;;;;;;;3.30;2.03;;;17.90;99.90;;;;;;5089242;27;20492;-84
2022/06/16 06:52:51;;;;;;;3.97;1.55;;;18.10;99.90;;;;;;5111004;28;20414;-85
2022/06/16 06:55:18;;;;;;;3.55;1.60;;;18.20;99.90;;;;;;5094896;27;20496;-85
2022/06/16 06:57:45;;;;;;;3.45;1.70;;;18.30;99.90;;;;;;5081060;27;20084;-86
2022/06/16 07:00:14;;;;;;;2.47;1.50;;;18.50;99.90;;;;;;5086707;28;20078;-85
2022/06/16 07:02:40;;;;;;;3.38;1.50;;;18.60;99.90;;;;;;5093016;27;20039;-85
2022/06/16 07:05:06;;;;;;;4.43;1.58;;;18.70;99.90;;;;;;5104248;27;20072;-86
2022/06/16 07:07:34;;;;;;;3.35;1.58;;;18.80;99.90;;;;;;5091701;27;20686;-85
2022/06/16 07:10:00;;;;;;;3.13;1.42;;;19.00;99.90;;;;;;5083986;28;20051;-86
2022/06/16 07:12:25;;;;;;;2.95;1.17;;;19.00;99.90;;;;;;5089110;28;20379;-85
2022/06/16 07:14:52;;;;;;;3.78;1.40;;;19.20;99.90;;;;;;5094023;28;20098;-85
2022/06/16 07:17:20;;;;;;;2.97;1.27;;;19.30;99.90;;;;;;5109332;28;20086;-85
2022/06/16 07:19:47;;;;;;;3.92;1.50;;;19.40;99.90;;;;;;5104010;28;20054;-85
2022/06/16 07:22:13;;;;;;;3.40;1.50;;;19.50;99.90;;;;;;5119995;28;20059;-86
2022/06/16 07:24:39;;;;;;;4.00;1.70;;;19.60;99.90;;;;;;5102598;28;20099;-84
2022/06/16 07:27:05;;;;;;;2.97;1.38;;;19.90;99.90;;;;;;5098866;28;20039;-85
2022/06/16 07:29:34;;;;;;;2.92;1.30;;;20.10;99.90;;;;;;5106450;28;20044;-85
2022/06/16 07:32:00;;;;;;;4.57;1.50;;;20.20;99.90;;;;;;5086963;28;20054;-84
2022/06/16 07:34:27;;;;;;;2.72;1.52;;;20.20;99.90;;;;;;5091393;28;20055;-86
2022/06/16 07:36:53;;;;;;;3.67;1.83;;;19.70;99.90;;;;;;5091517;28;20484;-85
2022/06/16 07:39:19;;;;;;;4.18;1.70;;;20.40;99.90;;;;;;5089258;28;20086;-85
2022/06/16 07:41:45;;;;;;;3.50;1.85;;;20.50;99.90;;;;;;5073624;28;20047;-85
2022/06/16 07:44:15;;;;;;;2.60;1.30;;;20.50;99.90;;;;;;5090374;28;20624;-85
2022/06/16 07:46:46;;;;;;;3.42;1.60;;;20.50;99.90;;;;;;5088794;28;20287;-87
2022/06/16 07:49:14;;;;;;;2.20;1.45;;;20.70;99.90;;;;;;5093242;28;20078;-86
2022/06/16 07:51:42;;;;;;;2.03;1.48;;;21.00;99.90;;;;;;5092950;27;20111;-86
2022/06/16 07:54:11;;;;;;;4.25;1.60;;;21.30;99.90;;;;;;5096295;27;20143;-85
2022/06/16 07:56:37;;;;;;;4.63;1.73;;;21.70;99.90;;;;;;5091345;27;20039;-86
2022/06/16 07:59:05;;;;;;;4.07;1.50;;;22.00;99.10;;;;;;5114242;27;20050;-85
2022/06/16 08:01:33;;;;;;;2.75;1.40;;;22.30;98.30;;;;;;5097024;27;20487;-86
2022/06/16 08:04:06;;;;;;;4.55;1.48;;;22.50;98.10;;;;;;5112435;27;20051;-85
2022/06/16 08:06:37;;;;;;;2.33;1.30;;;22.60;97.50;;;;;;5092978;27;20043;-86
2022/06/16 08:09:05;;;;;;;3.15;1.30;;;22.70;97.00;;;;;;5094157;27;20375;-85
2022/06/16 08:14:16;;;;;;;3.70;1.60;;;23.00;96.80;;;;;;5113043;27;20614;-86
2022/06/16 08:16:44;;;;;;;2.33;1.30;;;23.00;96.70;;;;;;5095820;27;20055;-86
2022/06/16 08:19:16;;;;;;;3.28;1.52;;;23.20;96.50;;;;;;5089982;27;20043;-85
2022/06/16 08:21:45;;;;;;;3.53;1.38;;;23.10;96.60;;;;;;5098106;27;20043;-87
2022/06/16 08:24:14;;;;;;;2.72;1.63;;;22.90;96.90;;;;;;5094753;27;20035;-86
2022/06/16 08:26:46;;;;;;;2.83;1.30;;;22.70;97.30;;;;;;5095865;27;20039;-86
2022/06/16 08:29:21;;;;;;;3.83;1.80;;;22.60;97.40;;;;;;5078991;27;20051;-86
2022/06/16 08:31:51;;;;;;;4.23;1.50;;;22.30;97.50;;;;;;5095090;27;20078;-86
2022/06/16 08:34:17;;;;;;;4.22;1.70;;;22.00;97.80;;;;;;5114345;27;20046;-87
2022/06/16 08:36:43;;;;;;;5.35;1.92;;;22.40;97.80;;;;;;5092269;27;20050;-85
2022/06/16 08:39:09;;;;;;;3.42;1.50;;;22.60;97.60;;;;;;5114040;27;20075;-86
2022/06/16 08:41:50;;;;;;;4.35;2.08;;;22.90;97.20;;;;;;5097945;27;20055;-87
2022/06/16 08:44:33;;;;;;;3.42;1.75;;;22.90;96.50;;;;;;5112797;27;20099;-85
2022/06/16 08:47:19;;;;;;;4.15;1.90;;;23.40;96.20;;;;;;5097607;27;20133;-86
2022/06/16 08:50:25;;;;;;;3.08;1.67;;;23.20;96.30;;;;;;5113686;27;20044;-87
2022/06/16 08:53:16;;;;;;;3.60;1.83;;;23.10;96.20;;;;;;5091568;27;20039;-85
2022/06/16 08:56:04;;;;;;;2.88;1.52;;;23.00;95.30;;;;;;5093560;27;20073;-86
2022/06/16 08:58:53;;;;;;;3.22;1.83;;;22.80;95.80;;;;;;5097355;27;20043;-86
2022/06/16 09:01:44;;;;;;;3.38;1.75;;;22.80;95.70;;;;;;5106413;28;20051;-86
2022/06/16 09:04:18;;;;;;;4.00;1.55;;;22.90;96.30;;;;;;5095697;27;20054;-85
2022/06/16 09:07:00;;;;;;;2.78;1.73;;;23.00;95.70;;;;;;5094529;27;20043;-85
2022/06/16 09:12:52;;;;;;;3.72;1.50;;;23.30;94.90;;;;;;5109972;27;20111;-85
2022/06/16 09:15:40;;;;;;;3.28;1.50;;;23.50;95.20;;;;;;5090555;27;20048;-87
2022/06/16 09:18:08;;;;;;;4.18;2.08;;;23.80;94.00;;;;;;5092141;27;20399;-86
2022/06/16 09:21:10;;;;;;;3.17;1.70;;;24.10;94.50;;;;;;5096098;27;20100;-86
2022/06/16 09:24:01;;;;;;;4.40;1.70;;;24.30;93.80;;;;;;5089982;27;20070;-86
2022/06/16 09:27:01;;;;;;;2.45;1.50;;;24.40;93.40;;;;;;5093414;27;20047;-86
2022/06/16 09:29:33;;;;;;;4.15;1.60;;;24.50;93.30;;;;;;5079367;27;20055;-86
2022/06/16 09:32:36;;;;;;;3.80;1.50;;;24.50;93.60;;;;;;5091226;27;20047;-87
2022/06/16 09:35:10;;;;;;;3.03;1.60;;;24.60;93.10;;;;;;5109173;27;20047;-86
2022/06/16 09:37:56;;;;;;;5.20;1.90;;;24.70;92.70;;;;;;5093504;27;20046;-86
2022/06/16 09:40:33;;;;;;;6.20;1.73;;;24.50;92.30;;;;;;5110542;27;20111;-85
2022/06/16 09:43:10;;;;;;;3.28;1.92;;;24.20;92.10;;;;;;5095398;27;20044;-85
2022/06/16 09:46:03;;;;;;;3.72;1.60;;;24.10;92.30;;;;;;5088718;28;20052;-85
2022/06/16 09:48:47;;;;;;;4.20;1.80;;;24.00;92.40;;;;;;5110186;28;20055;-86
2022/06/16 09:51:31;;;;;;;2.70;1.60;;;24.00;92.90;;;;;;5092089;28;20043;-86
2022/06/16 09:54:12;;;;;;;3.58;1.30;;;24.20;93.00;;;;;;5091659;28;20918;-86
2022/06/16 09:56:53;;;;;;;3.50;1.45;;;24.60;92.30;;;;;;5110031;28;20040;-86
2022/06/16 09:59:28;;;;;;;3.08;1.40;;;24.90;92.00;;;;;;5088109;28;20051;-86
2022/06/16 10:02:10;;;;;;;2.83;1.40;;;24.70;91.80;;;;;;5100813;28;20746;-87
2022/06/16 10:04:36;;;;;;;3.75;1.50;;;24.80;92.00;;;;;;5104739;28;20036;-86
2022/06/16 10:07:41;;;;;;;2.88;1.50;;;25.10;92.00;;;;;;5085854;28;20043;-86
2022/06/16 10:10:17;;;;;;;1.88;1.20;;;25.40;91.30;;;;;;5105260;28;20059;-86
2022/06/16 10:12:53;;;;;;;3.63;1.30;;;25.70;91.20;;;;;;5087019;28;20039;-85
2022/06/16 10:15:37;;;;;;;2.67;1.25;;;25.70;90.90;;;;;;5109724;28;20082;-85
2022/06/16 10:18:07;;;;;;;3.03;1.48;;;25.80;90.00;;;;;;5090440;28;20055;-87
2022/06/16 10:20:34;;;;;;;2.72;1.48;;;25.80;90.60;;;;;;5104557;28;20043;-87
2022/06/16 10:23:20;;;;;;;2.90;1.42;;;25.70;90.20;;;;;;5086104;28;20040;-86
2022/06/16 10:25:54;;;;;;;2.60;1.30;;;25.70;88.90;;;;;;5104661;28;20045;-86
2022/06/16 10:28:47;;;;;;;4.45;1.50;;;25.50;88.80;;;;;;5104569;28;20051;-86
2022/06/16 10:31:33;;;;;;;3.28;1.65;;;25.60;89.90;;;;;;5084103;28;20048;-85
2022/06/16 10:34:01;;;;;;;3.33;1.13;;;25.90;89.50;;;;;;5092884;28;20084;-85
2022/06/16 10:36:28;;;;;;;3.38;1.50;;;25.70;87.20;;;;;;5107417;28;20078;-85
2022/06/16 10:39:19;;;;;;;4.50;1.50;;;25.80;87.00;;;;;;5090715;28;20047;-86
2022/06/16 10:41:59;;;;;;;2.95;1.30;;;25.80;86.00;;;;;;5095759;28;20077;-86
2022/06/16 10:44:31;;;;;;;2.72;1.30;;;26.10;83.80;;;;;;5095734;28;20062;-87
2022/06/16 10:47:00;;;;;;;2.15;1.27;;;26.40;82.60;;;;;;5074445;28;20044;-85
2022/06/16 10:49:35;;;;;;;2.50;1.20;;;26.30;81.40;;;;;;5064464;28;20546;-85
2022/06/16 10:52:09;;;;;;;3.25;1.30;;;26.00;80.50;;;;;;5070469;28;20044;-86
2022/06/16 10:55:01;;;;;;;1.73;1.15;;;25.90;79.80;;;;;;5071565;28;20052;-86
2022/06/16 10:57:30;;;;;;;2.00;1.17;;;25.90;78.10;;;;;;5064101;28;20205;-85
2022/06/16 11:00:04;;;;;;;3.25;1.20;;;26.10;79.90;;;;;;5066255;28;20431;-87
2022/06/16 11:02:35;;;;;;;6.45;1.23;;;26.30;79.50;;;;;;5072223;28;20059;-86
2022/06/16 11:05:15;;;;;;;2.67;1.20;;;26.40;78.30;;;;;;5071621;28;20048;-87
2022/06/16 11:07:43;;;;;;;1.90;1.10;;;26.50;78.20;;;;;;5072120;28;20044;-86
2022/06/16 11:10:27;;;;;;;2.17;0.95;;;26.60;77.60;;;;;;5071801;28;20131;-86
2022/06/16 11:12:53;;;;;;;2.25;1.30;;;26.60;76.50;;;;;;5068744;28;20046;-85
2022/06/16 11:15:55;;;;;;;3.72;1.33;;;27.00;76.00;;;;;;5073291;28;20056;-86
2022/06/16 11:18:27;;;;;;;1.77;1.10;;;27.20;72.40;;;;;;5025110;28;20520;-86
2022/06/16 11:21:00;;;;;;;2.05;1.10;;;26.90;72.80;;;;;;5077716;28;20068;-85
2022/06/16 11:23:42;;;;;;;3.17;1.00;;;26.80;71.70;;;;;;5088692;28;20052;-86
2022/06/16 11:26:24;;;;;;;2.38;0.95;;;27.00;71.40;;;;;;5091225;28;20500;-86
2022/06/16 11:28:57;;;;;;;2.65;1.30;;;27.10;71.20;;;;;;5074459;28;20131;-85
2022/06/16 11:31:48;;;;;;;2.40;1.15;;;27.30;70.10;;;;;;5075392;28;20380;-86
2022/06/16 11:34:27;;;;;;;3.05;1.30;;;27.60;66.70;;;;;;5069620;28;20048;-87
2022/06/16 11:37:17;;;;;;;2.13;1.20;;;27.50;67.80;;;;;;5077199;28;20489;-87
2022/06/16 11:40:00;;;;;;;1.73;1.05;;;27.50;64.40;;;;;;5073118;28;20048;-86
2022/06/16 11:42:31;;;;;;;2.42;1.23;;;27.60;64.30;;;;;;5073614;28;20052;-87
2022/06/16 11:45:11;;;;;;;2.50;1.33;;;27.30;64.50;;;;;;5074311;28;20040;-86
2022/06/16 11:47:48;;;;;;;2.60;1.20;;;27.20;62.30;;;;;;5067401;28;20086;-85
2022/06/16 11:50:51;;;;;;;3.30;1.20;;;27.30;62.20;;;;;;5067329;28;20114;-85
2022/06/16 11:53:27;;;;;;;3.25;1.35;;;27.30;62.50;;;;;;5074198;28;20048;-86
2022/06/16 11:56:54;;;;;;;1.50;0.98;;;27.30;63.00;;;;;;5086836;28;20121;-86
2022/06/16 11:59:47;;;;;;;1.65;1.05;;;27.20;60.90;;;;;;5032263;28;20611;-86
2022/06/16 12:02:36;;;;;;;3.40;1.15;;;27.40;60.40;;;;;;5071794;28;20060;-85
2022/06/16 12:05:28;;;;;;;4.97;1.33;;;27.60;62.90;;;;;;5073716;28;20105;-85
2022/06/16 12:08:10;;;;;;;1.98;1.02;;;27.70;62.20;;;;;;5078802;28;20052;-85
2022/06/16 12:10:55;;;;;;;3.15;1.30;;;27.60;63.60;;;;;;5069167;28;20056;-86
2022/06/16 12:13:56;;;;;;;2.35;1.20;;;27.80;64.10;;;;;;5086808;28;20075;-86
2022/06/16 12:16:33;;;;;;;2.75;1.40;;;27.90;64.30;;;;;;5091215;28;20080;-85
2022/06/16 12:19:31;;;;;;;3.08;1.55;;;27.80;64.80;;;;;;5076612;28;20074;-85
2022/06/16 12:22:31;;;;;;;2.90;1.30;;;27.80;66.40;;;;;;5074070;28;20051;-85
2022/06/16 12:25:25;;;;;;;3.42;1.48;;;27.80;67.20;;;;;;5053501;28;20460;-87
2022/06/16 12:28:38;;;;;;;5.00;1.65;;;27.90;67.70;;;;;;5072348;28;20051;-86
2022/06/16 12:31:17;;;;;;;3.22;1.27;;;28.10;68.40;;;;;;5083598;28;20036;-86
2022/06/16 12:33:58;;;;;;;2.53;1.63;;;28.40;67.20;;;;;;5086390;28;20048;-85
2022/06/16 12:36:52;;;;;;;3.33;1.52;;;28.80;65.80;;;;;;5073587;28;20055;-86
2022/06/16 12:39:35;;;;;;;3.58;1.50;;;28.90;65.10;;;;;;5055651;28;20135;-85
2022/06/16 12:42:18;;;;;;;3.05;1.38;;;29.10;66.40;;;;;;5090915;28;20085;-85
2022/06/16 12:44:46;;;;;;;4.05;1.67;;;29.30;66.50;;;;;;5074798;28;20082;-86
2022/06/16 12:47:29;;;;;;;3.17;1.60;;;29.40;65.60;;;;;;5092561;27;20055;-87
2022/06/16 12:50:10;;;;;;;3.17;1.50;;;29.60;65.60;;;;;;5088043;27;20047;-86
2022/06/16 12:52:43;;;;;;;2.65;1.40;;;29.70;65.50;;;;;;5110557;27;20126;-86
2022/06/16 12:55:30;;;;;;;2.17;1.40;;;29.70;65.20;;;;;;5107515;27;20040;-86
2022/06/16 12:58:19;;;;;;;3.40;1.60;;;29.60;65.70;;;;;;5089437;27;20046;-86
2022/06/16 13:00:51;;;;;;;4.80;1.60;;;29.60;66.00;;;;;;5090684;27;20053;-86
2022/06/16 13:03:48;;;;;;;4.05;1.58;;;29.60;65.70;;;;;;5091076;27;20052;-86
2022/06/16 13:06:22;;;;;;;2.92;1.60;;;29.30;65.30;;;;;;5080003;27;20051;-86
2022/06/16 13:08:56;;;;;;;3.35;1.35;;;28.90;66.60;;;;;;5094582;27;20487;-86
2022/06/16 13:11:29;;;;;;;4.43;1.65;;;29.00;67.10;;;;;;5089726;27;20860;-87
2022/06/16 13:14:39;;;;;;;2.53;1.30;;;28.90;67.00;;;;;;5091643;27;20061;-86
2022/06/16 13:17:10;;;;;;;2.22;1.30;;;28.50;67.80;;;;;;5066389;27;20059;-87
2022/06/16 13:19:57;;;;;;;4.60;1.70;;;27.60;68.20;;;;;;5095662;27;20184;-86
2022/06/16 13:22:43;;;;;;;2.55;1.38;;;28.60;69.00;;;;;;5095722;27;20193;-86
2022/06/16 13:25:33;;;;;;;2.88;1.40;;;28.80;68.30;;;;;;5095967;27;20138;-87
2022/06/16 13:28:03;;;;;;;3.05;1.60;;;28.80;69.30;;;;;;5095340;27;20053;-86
2022/06/16 13:30:34;;;;;;;3.67;1.40;;;29.20;69.20;;;;;;5093572;27;20322;-87
2022/06/16 13:33:22;;;;;;;4.68;1.65;;;28.80;69.80;;;;;;5094124;27;20046;-87
2022/06/16 13:36:07;;;;;;;3.83;1.75;;;28.80;68.00;;;;;;5107350;27;20044;-85
2022/06/16 13:38:51;;;;;;;3.10;1.60;;;28.50;68.00;;;;;;5091817;27;20043;-87
2022/06/16 13:41:34;;;;;;;3.63;1.75;;;28.60;69.40;;;;;;5091842;27;20747;-86
2022/06/16 13:44:26;;;;;;;4.32;1.80;;;29.00;69.20;;;;;;5095997;27;20484;-86
2022/06/16 13:47:00;;;;;;;3.47;1.60;;;29.20;68.20;;;;;;5094565;27;20064;-86